Portada
METAR-TAF:

METAR-TAF

Aeropuertos :

Curazao, Antillas Neerlandesas

Aeropuerto Internacional Hato

latitud: 12-12N, longitud: 068-58W, altitud: 9 m

Observación

El informe se hizo hace 36 minutos, a las 18:00 UTC
Viento 10 kt del este
Temperatura 29°C
Humedad 74%
Presión 1014 hPa
Visibilidad 10 km o más
Nubes dispersas a una altura de 1800 ft, Cumulus congestus.

METAR: TNCC 161800Z 09010KT 9999 SCT018TCU 29/24 Q1014 NOSIG

Hora: 14:36 (18:36 UTC)

Pronóstico

El informe se hizo hace 3 horas y 6 minutos, a las 15:30 UTC
Pronóstico válido del 16 a las 18 UTC al 17 a las 18 UTC
Viento 12 kt del este
Visibilidad 10 km o más
Nubes dispersas a una altura de 2000 ft
Probabilidad 40% :
Temporalmente
del 16 a las 18 UTC al 17 a las 18 UTC
Visibilidad: 5000 m
Cielo nuboso a una altura de 1500 ft
chaparrones de lluvia

TAF: TNCC 161530Z 1618/1718 10012KT 9999 SCT020 PROB40 TEMPO 1618/1718 5000 SHRA BKN015

Observaciones y pronósticos meteorológicos de más de 4000 aeropuertos (mensajes METAR y TAF).

Los puntos amarillos y rojos representan las estaciones disponibles.

Ponga el ratón en el punto deseado para ver el nombre de la estación.

Haga clic para ver las observaciones y los pronósticos meteorológicos.

Para cambiar el mapa : haga clic en los botones verdes con una cruz de color negro para hacer un zoom, en el botón verde con un guión para alejar o en las flechas verdes para mapas adyacentes.


METAR-TAF: